sensor_id;sensor_type;location;lat;lon;timestamp;P1;durP1;ratioP1;P2;durP2;ratioP2
78796;SDS011;68145;52.514;13.460;2023-04-29T00:00:06;8.75;;;6.38;;
78796;SDS011;68145;52.514;13.460;2023-04-29T00:02:34;8.82;;;6.43;;
78796;SDS011;68145;52.514;13.460;2023-04-29T00:05:00;9.80;;;6.22;;
78796;SDS011;68145;52.514;13.460;2023-04-29T00:07:29;11.40;;;7.57;;
78796;SDS011;68145;52.514;13.460;2023-04-29T00:09:56;8.95;;;6.25;;
78796;SDS011;68145;52.514;13.460;2023-04-29T00:12:22;14.30;;;9.77;;
78796;SDS011;68145;52.514;13.460;2023-04-29T00:14:48;18.75;;;10.95;;
78796;SDS011;68145;52.514;13.460;2023-04-29T00:17:14;8.20;;;6.15;;
78796;SDS011;68145;52.514;13.460;2023-04-29T00:19:41;14.40;;;6.40;;
78796;SDS011;68145;52.514;13.460;2023-04-29T00:22:08;36.03;;;21.67;;
78796;SDS011;68145;52.514;13.460;2023-04-29T00:24:34;20.25;;;13.18;;
78796;SDS011;68145;52.514;13.460;2023-04-29T00:27:00;13.07;;;8.00;;
78796;SDS011;68145;52.514;13.460;2023-04-29T00:29:26;13.10;;;8.18;;
78796;SDS011;68145;52.514;13.460;2023-04-29T00:31:53;9.65;;;6.63;;
78796;SDS011;68145;52.514;13.460;2023-04-29T00:34:19;9.80;;;6.93;;
78796;SDS011;68145;52.514;13.460;2023-04-29T00:36:45;10.77;;;6.15;;
78796;SDS011;68145;52.514;13.460;2023-04-29T00:39:11;10.15;;;7.57;;
78796;SDS011;68145;52.514;13.460;2023-04-29T00:41:37;9.85;;;7.63;;
78796;SDS011;68145;52.514;13.460;2023-04-29T00:44:03;10.40;;;7.05;;
78796;SDS011;68145;52.514;13.460;2023-04-29T00:46:29;11.05;;;6.93;;
78796;SDS011;68145;52.514;13.460;2023-04-29T00:48:56;8.95;;;6.60;;
78796;SDS011;68145;52.514;13.460;2023-04-29T00:51:22;12.80;;;8.90;;
78796;SDS011;68145;52.514;13.460;2023-04-29T00:53:48;23.13;;;13.68;;
78796;SDS011;68145;52.514;13.460;2023-04-29T00:56:14;11.25;;;7.07;;
78796;SDS011;68145;52.514;13.460;2023-04-29T00:58:41;12.88;;;7.90;;
78796;SDS011;68145;52.514;13.460;2023-04-29T01:01:13;12.43;;;7.53;;
78796;SDS011;68145;52.514;13.460;2023-04-29T01:03:40;11.55;;;6.95;;
78796;SDS011;68145;52.514;13.460;2023-04-29T01:08:33;10.27;;;6.80;;
78796;SDS011;68145;52.514;13.460;2023-04-29T01:11:07;9.65;;;6.47;;
78796;SDS011;68145;52.514;13.460;2023-04-29T01:13:50;13.18;;;7.05;;
78796;SDS011;68145;52.514;13.460;2023-04-29T01:16:24;11.18;;;6.63;;
78796;SDS011;68145;52.514;13.460;2023-04-29T01:18:54;10.23;;;6.82;;
78796;SDS011;68145;52.514;13.460;2023-04-29T01:21:20;10.18;;;6.53;;
78796;SDS011;68145;52.514;13.460;2023-04-29T01:23:46;9.27;;;7.18;;
78796;SDS011;68145;52.514;13.460;2023-04-29T01:26:19;13.43;;;7.63;;
78796;SDS011;68145;52.514;13.460;2023-04-29T01:33:49;15.60;;;8.75;;
78796;SDS011;68145;52.514;13.460;2023-04-29T01:44:04;11.95;;;9.52;;
78796;SDS011;68145;52.514;13.460;2023-04-29T01:46:32;13.40;;;9.60;;
78796;SDS011;68145;52.514;13.460;2023-04-29T01:48:59;17.15;;;11.93;;
78796;SDS011;68145;52.514;13.460;2023-04-29T01:51:25;15.05;;;10.48;;
78796;SDS011;68145;52.514;13.460;2023-04-29T01:53:52;15.95;;;11.45;;
78796;SDS011;68145;52.514;13.460;2023-04-29T01:56:18;18.40;;;11.88;;
78796;SDS011;68145;52.514;13.460;2023-04-29T01:58:44;17.20;;;12.07;;
78796;SDS011;68145;52.514;13.460;2023-04-29T02:01:10;16.10;;;11.30;;
78796;SDS011;68145;52.514;13.460;2023-04-29T02:03:36;20.80;;;13.77;;
78796;SDS011;68145;52.514;13.460;2023-04-29T02:06:03;19.08;;;11.45;;
78796;SDS011;68145;52.514;13.460;2023-04-29T02:08:30;22.25;;;14.63;;
78796;SDS011;68145;52.514;13.460;2023-04-29T02:10:57;26.45;;;15.40;;
78796;SDS011;68145;52.514;13.460;2023-04-29T02:13:24;18.02;;;11.63;;
78796;SDS011;68145;52.514;13.460;2023-04-29T02:15:50;18.77;;;11.73;;
78796;SDS011;68145;52.514;13.460;2023-04-29T02:18:17;16.75;;;11.82;;
78796;SDS011;68145;52.514;13.460;2023-04-29T02:20:43;16.77;;;11.32;;
78796;SDS011;68145;52.514;13.460;2023-04-29T02:23:09;14.82;;;10.93;;
78796;SDS011;68145;52.514;13.460;2023-04-29T02:25:35;17.55;;;11.20;;
78796;SDS011;68145;52.514;13.460;2023-04-29T02:28:01;14.00;;;10.43;;
78796;SDS011;68145;52.514;13.460;2023-04-29T02:30:27;17.23;;;11.82;;
78796;SDS011;68145;52.514;13.460;2023-04-29T02:32:54;16.77;;;12.73;;
78796;SDS011;68145;52.514;13.460;2023-04-29T02:35:20;14.93;;;10.43;;
78796;SDS011;68145;52.514;13.460;2023-04-29T02:37:46;16.25;;;11.13;;
78796;SDS011;68145;52.514;13.460;2023-04-29T02:40:12;15.40;;;11.25;;
78796;SDS011;68145;52.514;13.460;2023-04-29T02:42:39;15.70;;;12.13;;
78796;SDS011;68145;52.514;13.460;2023-04-29T02:45:05;14.48;;;11.00;;
78796;SDS011;68145;52.514;13.460;2023-04-29T02:47:32;15.07;;;10.50;;
78796;SDS011;68145;52.514;13.460;2023-04-29T02:49:58;14.73;;;10.93;;
78796;SDS011;68145;52.514;13.460;2023-04-29T02:52:24;18.85;;;12.50;;
78796;SDS011;68145;52.514;13.460;2023-04-29T02:54:50;18.27;;;11.00;;
78796;SDS011;68145;52.514;13.460;2023-04-29T02:57:16;18.48;;;12.75;;
78796;SDS011;68145;52.514;13.460;2023-04-29T02:59:42;17.30;;;12.07;;
78796;SDS011;68145;52.514;13.460;2023-04-29T03:02:08;16.85;;;11.90;;
78796;SDS011;68145;52.514;13.460;2023-04-29T03:04:34;17.05;;;11.50;;
78796;SDS011;68145;52.514;13.460;2023-04-29T03:07:00;17.17;;;12.90;;
78796;SDS011;68145;52.514;13.460;2023-04-29T03:09:26;16.27;;;12.27;;
78796;SDS011;68145;52.514;13.460;2023-04-29T03:11:52;16.77;;;12.23;;
78796;SDS011;68145;52.514;13.460;2023-04-29T03:14:18;19.05;;;12.75;;
78796;SDS011;68145;52.514;13.460;2023-04-29T03:16:45;18.33;;;13.68;;
78796;SDS011;68145;52.514;13.460;2023-04-29T03:19:11;21.25;;;14.07;;
78796;SDS011;68145;52.514;13.460;2023-04-29T03:21:37;20.17;;;15.57;;
78796;SDS011;68145;52.514;13.460;2023-04-29T03:24:03;17.55;;;13.52;;
78796;SDS011;68145;52.514;13.460;2023-04-29T03:26:29;21.70;;;14.07;;
78796;SDS011;68145;52.514;13.460;2023-04-29T03:28:55;20.30;;;15.32;;
78796;SDS011;68145;52.514;13.460;2023-04-29T03:31:22;17.30;;;13.40;;
78796;SDS011;68145;52.514;13.460;2023-04-29T03:33:50;21.48;;;16.05;;
78796;SDS011;68145;52.514;13.460;2023-04-29T03:36:17;19.95;;;15.35;;
78796;SDS011;68145;52.514;13.460;2023-04-29T03:38:43;22.20;;;14.25;;
78796;SDS011;68145;52.514;13.460;2023-04-29T03:41:09;20.50;;;13.63;;
78796;SDS011;68145;52.514;13.460;2023-04-29T03:43:35;19.60;;;13.70;;
78796;SDS011;68145;52.514;13.460;2023-04-29T03:46:02;18.90;;;14.18;;
78796;SDS011;68145;52.514;13.460;2023-04-29T03:48:28;23.10;;;15.23;;
78796;SDS011;68145;52.514;13.460;2023-04-29T03:50:54;20.55;;;14.48;;
78796;SDS011;68145;52.514;13.460;2023-04-29T03:53:20;21.45;;;15.77;;
78796;SDS011;68145;52.514;13.460;2023-04-29T03:55:46;21.67;;;13.85;;
78796;SDS011;68145;52.514;13.460;2023-04-29T03:58:12;22.25;;;16.75;;
78796;SDS011;68145;52.514;13.460;2023-04-29T04:00:38;23.48;;;14.98;;
78796;SDS011;68145;52.514;13.460;2023-04-29T04:03:04;19.52;;;14.27;;
78796;SDS011;68145;52.514;13.460;2023-04-29T04:05:30;23.23;;;15.68;;
78796;SDS011;68145;52.514;13.460;2023-04-29T04:07:56;22.60;;;15.63;;
78796;SDS011;68145;52.514;13.460;2023-04-29T04:10:24;23.33;;;16.60;;
78796;SDS011;68145;52.514;13.460;2023-04-29T04:12:52;23.42;;;16.60;;
78796;SDS011;68145;52.514;13.460;2023-04-29T04:15:18;25.40;;;17.25;;
78796;SDS011;68145;52.514;13.460;2023-04-29T04:17:44;26.55;;;17.45;;
78796;SDS011;68145;52.514;13.460;2023-04-29T04:20:11;27.25;;;17.73;;
78796;SDS011;68145;52.514;13.460;2023-04-29T04:22:37;37.97;;;21.58;;
78796;SDS011;68145;52.514;13.460;2023-04-29T04:25:03;30.98;;;18.65;;
78796;SDS011;68145;52.514;13.460;2023-04-29T04:27:29;27.30;;;18.35;;
78796;SDS011;68145;52.514;13.460;2023-04-29T04:29:55;26.52;;;18.73;;
78796;SDS011;68145;52.514;13.460;2023-04-29T04:32:21;29.55;;;17.98;;
78796;SDS011;68145;52.514;13.460;2023-04-29T04:34:48;28.25;;;18.00;;
78796;SDS011;68145;52.514;13.460;2023-04-29T04:37:14;30.70;;;18.90;;
78796;SDS011;68145;52.514;13.460;2023-04-29T04:39:41;28.85;;;18.88;;
78796;SDS011;68145;52.514;13.460;2023-04-29T04:42:07;30.02;;;18.75;;
78796;SDS011;68145;52.514;13.460;2023-04-29T04:44:33;26.40;;;18.38;;
78796;SDS011;68145;52.514;13.460;2023-04-29T04:46:59;27.45;;;18.63;;
78796;SDS011;68145;52.514;13.460;2023-04-29T04:49:26;30.33;;;19.17;;
78796;SDS011;68145;52.514;13.460;2023-04-29T04:51:52;28.05;;;17.80;;
78796;SDS011;68145;52.514;13.460;2023-04-29T04:54:18;32.83;;;19.63;;
78796;SDS011;68145;52.514;13.460;2023-04-29T04:56:44;29.23;;;18.00;;
78796;SDS011;68145;52.514;13.460;2023-04-29T04:59:12;31.35;;;19.58;;
78796;SDS011;68145;52.514;13.460;2023-04-29T05:01:38;27.90;;;18.83;;
78796;SDS011;68145;52.514;13.460;2023-04-29T05:04:05;31.92;;;21.27;;
78796;SDS011;68145;52.514;13.460;2023-04-29T05:06:31;36.17;;;20.17;;
78796;SDS011;68145;52.514;13.460;2023-04-29T05:08:57;31.55;;;20.80;;
78796;SDS011;68145;52.514;13.460;2023-04-29T05:11:23;33.72;;;21.45;;
78796;SDS011;68145;52.514;13.460;2023-04-29T05:13:49;33.40;;;20.73;;
78796;SDS011;68145;52.514;13.460;2023-04-29T05:16:15;33.92;;;21.17;;
78796;SDS011;68145;52.514;13.460;2023-04-29T05:18:42;34.60;;;21.42;;
78796;SDS011;68145;52.514;13.460;2023-04-29T05:21:10;35.40;;;21.58;;
78796;SDS011;68145;52.514;13.460;2023-04-29T05:23:36;40.83;;;22.65;;
78796;SDS011;68145;52.514;13.460;2023-04-29T05:26:02;39.97;;;23.92;;
78796;SDS011;68145;52.514;13.460;2023-04-29T05:28:28;40.25;;;24.10;;
78796;SDS011;68145;52.514;13.460;2023-04-29T05:30:54;42.38;;;25.42;;
78796;SDS011;68145;52.514;13.460;2023-04-29T05:33:20;42.40;;;24.42;;
78796;SDS011;68145;52.514;13.460;2023-04-29T05:35:46;38.40;;;23.58;;
78796;SDS011;68145;52.514;13.460;2023-04-29T05:38:12;37.58;;;22.35;;
78796;SDS011;68145;52.514;13.460;2023-04-29T05:40:38;37.83;;;23.30;;
78796;SDS011;68145;52.514;13.460;2023-04-29T05:43:05;41.67;;;23.27;;
78796;SDS011;68145;52.514;13.460;2023-04-29T05:45:31;41.70;;;24.00;;
78796;SDS011;68145;52.514;13.460;2023-04-29T05:47:57;38.15;;;21.95;;
78796;SDS011;68145;52.514;13.460;2023-04-29T05:50:23;45.33;;;23.80;;
78796;SDS011;68145;52.514;13.460;2023-04-29T05:52:49;46.08;;;24.58;;
78796;SDS011;68145;52.514;13.460;2023-04-29T05:55:15;42.05;;;22.20;;
78796;SDS011;68145;52.514;13.460;2023-04-29T05:57:42;42.05;;;22.65;;
78796;SDS011;68145;52.514;13.460;2023-04-29T06:00:08;35.53;;;20.58;;
78796;SDS011;68145;52.514;13.460;2023-04-29T06:02:34;40.83;;;22.33;;
78796;SDS011;68145;52.514;13.460;2023-04-29T06:05:00;40.97;;;23.00;;
78796;SDS011;68145;52.514;13.460;2023-04-29T06:07:26;45.33;;;22.77;;
78796;SDS011;68145;52.514;13.460;2023-04-29T06:09:52;46.38;;;23.52;;
78796;SDS011;68145;52.514;13.460;2023-04-29T06:12:18;48.85;;;23.45;;
78796;SDS011;68145;52.514;13.460;2023-04-29T06:14:45;44.25;;;24.10;;
78796;SDS011;68145;52.514;13.460;2023-04-29T06:17:11;52.20;;;27.77;;
78796;SDS011;68145;52.514;13.460;2023-04-29T06:19:37;47.35;;;25.92;;
78796;SDS011;68145;52.514;13.460;2023-04-29T06:22:03;43.25;;;22.23;;
78796;SDS011;68145;52.514;13.460;2023-04-29T06:24:29;44.75;;;22.55;;
78796;SDS011;68145;52.514;13.460;2023-04-29T06:26:55;35.10;;;19.95;;
78796;SDS011;68145;52.514;13.460;2023-04-29T06:29:21;42.13;;;22.00;;
78796;SDS011;68145;52.514;13.460;2023-04-29T06:31:47;38.60;;;20.33;;
78796;SDS011;68145;52.514;13.460;2023-04-29T06:34:13;36.50;;;19.20;;
78796;SDS011;68145;52.514;13.460;2023-04-29T06:36:39;39.47;;;20.58;;
78796;SDS011;68145;52.514;13.460;2023-04-29T06:39:06;34.45;;;19.65;;
78796;SDS011;68145;52.514;13.460;2023-04-29T06:41:32;35.40;;;17.63;;
78796;SDS011;68145;52.514;13.460;2023-04-29T06:43:58;37.00;;;18.65;;
78796;SDS011;68145;52.514;13.460;2023-04-29T06:46:24;32.70;;;17.80;;
78796;SDS011;68145;52.514;13.460;2023-04-29T06:48:52;33.05;;;17.70;;
78796;SDS011;68145;52.514;13.460;2023-04-29T06:51:18;33.65;;;18.30;;
78796;SDS011;68145;52.514;13.460;2023-04-29T06:53:44;34.67;;;18.55;;
78796;SDS011;68145;52.514;13.460;2023-04-29T06:56:10;36.42;;;18.50;;
78796;SDS011;68145;52.514;13.460;2023-04-29T06:58:36;29.95;;;16.45;;
78796;SDS011;68145;52.514;13.460;2023-04-29T07:01:03;33.40;;;17.33;;
78796;SDS011;68145;52.514;13.460;2023-04-29T07:03:31;37.70;;;17.58;;
78796;SDS011;68145;52.514;13.460;2023-04-29T07:05:57;32.13;;;16.75;;
78796;SDS011;68145;52.514;13.460;2023-04-29T07:08:23;26.98;;;15.27;;
78796;SDS011;68145;52.514;13.460;2023-04-29T07:10:52;25.98;;;15.15;;
78796;SDS011;68145;52.514;13.460;2023-04-29T07:13:19;24.65;;;14.00;;
78796;SDS011;68145;52.514;13.460;2023-04-29T07:15:45;25.80;;;14.55;;
78796;SDS011;68145;52.514;13.460;2023-04-29T07:18:11;24.98;;;14.07;;
78796;SDS011;68145;52.514;13.460;2023-04-29T07:20:37;29.40;;;15.82;;
78796;SDS011;68145;52.514;13.460;2023-04-29T07:23:04;26.83;;;15.18;;
78796;SDS011;68145;52.514;13.460;2023-04-29T07:25:30;25.50;;;15.18;;
78796;SDS011;68145;52.514;13.460;2023-04-29T07:27:56;23.17;;;13.63;;
78796;SDS011;68145;52.514;13.460;2023-04-29T07:30:22;26.83;;;14.68;;
78796;SDS011;68145;52.514;13.460;2023-04-29T07:32:48;24.70;;;14.73;;
78796;SDS011;68145;52.514;13.460;2023-04-29T07:35:15;27.85;;;14.18;;
78796;SDS011;68145;52.514;13.460;2023-04-29T07:37:41;27.67;;;15.40;;
78796;SDS011;68145;52.514;13.460;2023-04-29T07:40:07;27.63;;;16.17;;
78796;SDS011;68145;52.514;13.460;2023-04-29T07:42:34;27.35;;;15.63;;
78796;SDS011;68145;52.514;13.460;2023-04-29T07:45:00;23.80;;;14.68;;
78796;SDS011;68145;52.514;13.460;2023-04-29T07:47:26;25.50;;;15.23;;
78796;SDS011;68145;52.514;13.460;2023-04-29T07:49:52;24.25;;;16.02;;
78796;SDS011;68145;52.514;13.460;2023-04-29T07:52:18;25.55;;;16.35;;
78796;SDS011;68145;52.514;13.460;2023-04-29T07:54:44;24.45;;;14.95;;
78796;SDS011;68145;52.514;13.460;2023-04-29T07:57:10;26.67;;;15.68;;
78796;SDS011;68145;52.514;13.460;2023-04-29T07:59:36;21.45;;;14.60;;
78796;SDS011;68145;52.514;13.460;2023-04-29T08:02:02;20.95;;;14.13;;
78796;SDS011;68145;52.514;13.460;2023-04-29T08:04:28;24.17;;;15.68;;
78796;SDS011;68145;52.514;13.460;2023-04-29T08:06:54;20.45;;;13.77;;
78796;SDS011;68145;52.514;13.460;2023-04-29T08:09:21;23.65;;;14.45;;
78796;SDS011;68145;52.514;13.460;2023-04-29T08:11:47;19.90;;;13.05;;
78796;SDS011;68145;52.514;13.460;2023-04-29T08:14:13;19.38;;;12.98;;
78796;SDS011;68145;52.514;13.460;2023-04-29T08:16:39;22.27;;;15.93;;
78796;SDS011;68145;52.514;13.460;2023-04-29T08:19:05;24.13;;;16.08;;
78796;SDS011;68145;52.514;13.460;2023-04-29T08:21:31;18.00;;;13.38;;
78796;SDS011;68145;52.514;13.460;2023-04-29T08:23:58;18.17;;;13.63;;
78796;SDS011;68145;52.514;13.460;2023-04-29T08:26:24;19.58;;;13.35;;
78796;SDS011;68145;52.514;13.460;2023-04-29T08:28:51;17.33;;;13.18;;
78796;SDS011;68145;52.514;13.460;2023-04-29T08:31:18;17.92;;;12.75;;
78796;SDS011;68145;52.514;13.460;2023-04-29T08:33:44;20.90;;;12.88;;
78796;SDS011;68145;52.514;13.460;2023-04-29T08:36:10;19.25;;;13.13;;
78796;SDS011;68145;52.514;13.460;2023-04-29T08:38:37;17.23;;;12.52;;
78796;SDS011;68145;52.514;13.460;2023-04-29T08:41:03;16.75;;;11.52;;
78796;SDS011;68145;52.514;13.460;2023-04-29T08:43:29;19.13;;;13.07;;
78796;SDS011;68145;52.514;13.460;2023-04-29T08:45:57;17.23;;;12.45;;
78796;SDS011;68145;52.514;13.460;2023-04-29T08:48:24;17.52;;;12.85;;
78796;SDS011;68145;52.514;13.460;2023-04-29T08:50:52;17.75;;;13.43;;
78796;SDS011;68145;52.514;13.460;2023-04-29T08:53:18;22.73;;;13.73;;
78796;SDS011;68145;52.514;13.460;2023-04-29T08:55:45;18.58;;;13.77;;
78796;SDS011;68145;52.514;13.460;2023-04-29T08:58:12;19.55;;;13.52;;
78796;SDS011;68145;52.514;13.460;2023-04-29T09:00:39;21.77;;;13.02;;
78796;SDS011;68145;52.514;13.460;2023-04-29T09:05:40;20.38;;;14.23;;
78796;SDS011;68145;52.514;13.460;2023-04-29T09:08:07;20.65;;;13.85;;
78796;SDS011;68145;52.514;13.460;2023-04-29T09:10:36;21.08;;;13.60;;
78796;SDS011;68145;52.514;13.460;2023-04-29T09:13:02;32.88;;;18.60;;
78796;SDS011;68145;52.514;13.460;2023-04-29T09:15:28;28.63;;;16.50;;
78796;SDS011;68145;52.514;13.460;2023-04-29T09:17:54;25.92;;;15.20;;
78796;SDS011;68145;52.514;13.460;2023-04-29T09:22:57;29.33;;;15.90;;
78796;SDS011;68145;52.514;13.460;2023-04-29T09:25:23;32.58;;;18.55;;
78796;SDS011;68145;52.514;13.460;2023-04-29T09:27:51;33.85;;;19.27;;
78796;SDS011;68145;52.514;13.460;2023-04-29T09:30:17;47.00;;;24.50;;
78796;SDS011;68145;52.514;13.460;2023-04-29T09:32:43;39.17;;;21.92;;
78796;SDS011;68145;52.514;13.460;2023-04-29T09:37:37;35.53;;;17.70;;
78796;SDS011;68145;52.514;13.460;2023-04-29T09:40:03;36.75;;;19.20;;
78796;SDS011;68145;52.514;13.460;2023-04-29T09:42:29;35.33;;;19.20;;
78796;SDS011;68145;52.514;13.460;2023-04-29T09:45:07;35.72;;;20.15;;
78796;SDS011;68145;52.514;13.460;2023-04-29T09:47:36;38.63;;;19.88;;
78796;SDS011;68145;52.514;13.460;2023-04-29T09:50:09;37.88;;;20.08;;
78796;SDS011;68145;52.514;13.460;2023-04-29T09:52:40;32.90;;;18.60;;
78796;SDS011;68145;52.514;13.460;2023-04-29T09:55:06;31.77;;;18.23;;
78796;SDS011;68145;52.514;13.460;2023-04-29T09:57:38;33.88;;;19.13;;
78796;SDS011;68145;52.514;13.460;2023-04-29T10:00:09;32.33;;;18.83;;
78796;SDS011;68145;52.514;13.460;2023-04-29T10:02:36;34.35;;;19.65;;
78796;SDS011;68145;52.514;13.460;2023-04-29T10:05:05;37.70;;;20.88;;
78796;SDS011;68145;52.514;13.460;2023-04-29T10:07:32;43.92;;;23.75;;
78796;SDS011;68145;52.514;13.460;2023-04-29T10:09:58;54.08;;;28.75;;
78796;SDS011;68145;52.514;13.460;2023-04-29T10:12:24;51.45;;;26.90;;
78796;SDS011;68145;52.514;13.460;2023-04-29T10:14:56;48.53;;;26.75;;
78796;SDS011;68145;52.514;13.460;2023-04-29T10:17:23;54.70;;;28.88;;
78796;SDS011;68145;52.514;13.460;2023-04-29T10:22:25;56.13;;;27.63;;
78796;SDS011;68145;52.514;13.460;2023-04-29T10:24:56;56.28;;;29.60;;
78796;SDS011;68145;52.514;13.460;2023-04-29T10:27:24;57.78;;;30.67;;
78796;SDS011;68145;52.514;13.460;2023-04-29T10:29:51;55.67;;;28.48;;
78796;SDS011;68145;52.514;13.460;2023-04-29T10:32:17;54.00;;;29.25;;
78796;SDS011;68145;52.514;13.460;2023-04-29T10:34:44;51.38;;;28.25;;
78796;SDS011;68145;52.514;13.460;2023-04-29T10:37:10;50.72;;;28.77;;
78796;SDS011;68145;52.514;13.460;2023-04-29T10:39:51;47.15;;;27.08;;
78796;SDS011;68145;52.514;13.460;2023-04-29T10:42:53;45.75;;;26.98;;
78796;SDS011;68145;52.514;13.460;2023-04-29T10:45:24;44.47;;;26.40;;
78796;SDS011;68145;52.514;13.460;2023-04-29T10:51:12;40.97;;;25.52;;
78796;SDS011;68145;52.514;13.460;2023-04-29T10:53:16;39.13;;;24.10;;
78796;SDS011;68145;52.514;13.460;2023-04-29T10:55:46;37.95;;;23.00;;
78796;SDS011;68145;52.514;13.460;2023-04-29T11:00:57;34.38;;;22.70;;
78796;SDS011;68145;52.514;13.460;2023-04-29T11:06:37;37.92;;;21.50;;
78796;SDS011;68145;52.514;13.460;2023-04-29T11:11:42;31.75;;;21.00;;
78796;SDS011;68145;52.514;13.460;2023-04-29T11:14:08;29.25;;;21.00;;
78796;SDS011;68145;52.514;13.460;2023-04-29T11:16:36;39.72;;;25.30;;
78796;SDS011;68145;52.514;13.460;2023-04-29T11:19:02;28.92;;;19.48;;
78796;SDS011;68145;52.514;13.460;2023-04-29T11:21:29;29.52;;;18.88;;
78796;SDS011;68145;52.514;13.460;2023-04-29T11:23:56;31.60;;;19.48;;
78796;SDS011;68145;52.514;13.460;2023-04-29T11:26:23;28.83;;;18.85;;
78796;SDS011;68145;52.514;13.460;2023-04-29T11:28:50;27.15;;;19.35;;
78796;SDS011;68145;52.514;13.460;2023-04-29T11:31:16;27.45;;;18.98;;
78796;SDS011;68145;52.514;13.460;2023-04-29T11:33:42;24.95;;;18.02;;
78796;SDS011;68145;52.514;13.460;2023-04-29T11:36:08;27.08;;;17.30;;
78796;SDS011;68145;52.514;13.460;2023-04-29T11:38:37;30.85;;;20.50;;
78796;SDS011;68145;52.514;13.460;2023-04-29T11:41:04;30.65;;;19.92;;
78796;SDS011;68145;52.514;13.460;2023-04-29T11:43:30;20.92;;;16.60;;
78796;SDS011;68145;52.514;13.460;2023-04-29T11:45:56;23.25;;;17.80;;
78796;SDS011;68145;52.514;13.460;2023-04-29T11:48:22;23.23;;;16.10;;
78796;SDS011;68145;52.514;13.460;2023-04-29T11:50:50;26.15;;;16.75;;
78796;SDS011;68145;52.514;13.460;2023-04-29T11:53:19;23.25;;;15.38;;
78796;SDS011;68145;52.514;13.460;2023-04-29T11:55:46;23.67;;;15.93;;
78796;SDS011;68145;52.514;13.460;2023-04-29T11:58:15;23.65;;;16.02;;
78796;SDS011;68145;52.514;13.460;2023-04-29T12:00:42;22.65;;;14.63;;
78796;SDS011;68145;52.514;13.460;2023-04-29T12:03:27;23.23;;;15.07;;
78796;SDS011;68145;52.514;13.460;2023-04-29T12:05:53;18.85;;;12.75;;
78796;SDS011;68145;52.514;13.460;2023-04-29T12:10:47;17.30;;;12.65;;
78796;SDS011;68145;52.514;13.460;2023-04-29T12:13:14;15.60;;;11.93;;
78796;SDS011;68145;52.514;13.460;2023-04-29T12:15:40;16.00;;;12.50;;
78796;SDS011;68145;52.514;13.460;2023-04-29T12:18:07;17.60;;;11.90;;
78796;SDS011;68145;52.514;13.460;2023-04-29T12:20:33;21.90;;;13.20;;
78796;SDS011;68145;52.514;13.460;2023-04-29T12:23:12;21.63;;;13.98;;
78796;SDS011;68145;52.514;13.460;2023-04-29T12:25:38;19.00;;;12.57;;
78796;SDS011;68145;52.514;13.460;2023-04-29T12:28:13;21.50;;;16.38;;
78796;SDS011;68145;52.514;13.460;2023-04-29T12:30:40;18.17;;;12.60;;
78796;SDS011;68145;52.514;13.460;2023-04-29T12:33:09;15.20;;;12.00;;
78796;SDS011;68145;52.514;13.460;2023-04-29T12:35:38;20.52;;;13.30;;
78796;SDS011;68145;52.514;13.460;2023-04-29T12:38:04;17.73;;;12.43;;
78796;SDS011;68145;52.514;13.460;2023-04-29T12:40:30;14.98;;;10.15;;
78796;SDS011;68145;52.514;13.460;2023-04-29T12:43:05;14.82;;;11.10;;
78796;SDS011;68145;52.514;13.460;2023-04-29T12:45:31;16.58;;;11.90;;
78796;SDS011;68145;52.514;13.460;2023-04-29T12:47:58;20.30;;;14.00;;
78796;SDS011;68145;52.514;13.460;2023-04-29T12:50:31;13.05;;;9.07;;
78796;SDS011;68145;52.514;13.460;2023-04-29T12:52:57;15.80;;;10.77;;
78796;SDS011;68145;52.514;13.460;2023-04-29T12:55:23;12.95;;;9.45;;
78796;SDS011;68145;52.514;13.460;2023-04-29T12:57:50;15.68;;;10.07;;
78796;SDS011;68145;52.514;13.460;2023-04-29T13:00:17;10.18;;;8.57;;
78796;SDS011;68145;52.514;13.460;2023-04-29T13:02:45;15.25;;;9.00;;
78796;SDS011;68145;52.514;13.460;2023-04-29T13:05:11;12.95;;;8.27;;
78796;SDS011;68145;52.514;13.460;2023-04-29T13:07:38;13.75;;;9.25;;
78796;SDS011;68145;52.514;13.460;2023-04-29T13:10:04;10.52;;;8.23;;
78796;SDS011;68145;52.514;13.460;2023-04-29T13:12:31;13.63;;;7.80;;
78796;SDS011;68145;52.514;13.460;2023-04-29T13:14:57;11.05;;;7.95;;
78796;SDS011;68145;52.514;13.460;2023-04-29T13:17:23;9.25;;;7.45;;
78796;SDS011;68145;52.514;13.460;2023-04-29T13:19:49;11.13;;;8.25;;
78796;SDS011;68145;52.514;13.460;2023-04-29T13:22:16;12.85;;;7.70;;
78796;SDS011;68145;52.514;13.460;2023-04-29T13:24:42;11.52;;;7.60;;
78796;SDS011;68145;52.514;13.460;2023-04-29T13:27:08;10.48;;;7.40;;
78796;SDS011;68145;52.514;13.460;2023-04-29T13:29:34;12.38;;;7.63;;
78796;SDS011;68145;52.514;13.460;2023-04-29T13:32:00;9.45;;;7.35;;
78796;SDS011;68145;52.514;13.460;2023-04-29T13:34:27;8.93;;;6.95;;
78796;SDS011;68145;52.514;13.460;2023-04-29T13:36:53;10.25;;;7.32;;
78796;SDS011;68145;52.514;13.460;2023-04-29T13:39:19;9.95;;;6.88;;
78796;SDS011;68145;52.514;13.460;2023-04-29T13:41:47;7.55;;;6.28;;
78796;SDS011;68145;52.514;13.460;2023-04-29T13:44:13;8.55;;;5.78;;
78796;SDS011;68145;52.514;13.460;2023-04-29T13:46:39;8.20;;;6.25;;
78796;SDS011;68145;52.514;13.460;2023-04-29T13:49:06;8.13;;;6.15;;
78796;SDS011;68145;52.514;13.460;2023-04-29T13:51:32;9.05;;;7.35;;
78796;SDS011;68145;52.514;13.460;2023-04-29T13:53:58;8.15;;;6.38;;
78796;SDS011;68145;52.514;13.460;2023-04-29T13:56:25;10.07;;;6.45;;
78796;SDS011;68145;52.514;13.460;2023-04-29T13:58:51;8.73;;;6.82;;
78796;SDS011;68145;52.514;13.460;2023-04-29T14:01:17;9.93;;;7.00;;
78796;SDS011;68145;52.514;13.460;2023-04-29T14:03:43;10.63;;;8.05;;
78796;SDS011;68145;52.514;13.460;2023-04-29T14:06:10;9.73;;;6.90;;
78796;SDS011;68145;52.514;13.460;2023-04-29T14:08:48;8.57;;;6.80;;
78796;SDS011;68145;52.514;13.460;2023-04-29T14:11:14;10.57;;;7.78;;
78796;SDS011;68145;52.514;13.460;2023-04-29T14:13:40;11.40;;;7.35;;
78796;SDS011;68145;52.514;13.460;2023-04-29T14:16:07;23.60;;;15.32;;
78796;SDS011;68145;52.514;13.460;2023-04-29T14:18:34;15.57;;;9.27;;
78796;SDS011;68145;52.514;13.460;2023-04-29T14:21:00;11.02;;;7.20;;
78796;SDS011;68145;52.514;13.460;2023-04-29T14:23:26;9.43;;;6.93;;
78796;SDS011;68145;52.514;13.460;2023-04-29T14:25:52;12.80;;;7.90;;
78796;SDS011;68145;52.514;13.460;2023-04-29T14:28:18;12.00;;;7.70;;
78796;SDS011;68145;52.514;13.460;2023-04-29T14:30:44;11.93;;;7.50;;
78796;SDS011;68145;52.514;13.460;2023-04-29T14:33:10;11.13;;;7.00;;
78796;SDS011;68145;52.514;13.460;2023-04-29T14:35:36;12.20;;;7.78;;
78796;SDS011;68145;52.514;13.460;2023-04-29T14:38:02;10.55;;;7.43;;
78796;SDS011;68145;52.514;13.460;2023-04-29T14:40:28;11.15;;;8.13;;
78796;SDS011;68145;52.514;13.460;2023-04-29T14:42:54;10.73;;;7.20;;
78796;SDS011;68145;52.514;13.460;2023-04-29T14:45:20;10.95;;;7.28;;
78796;SDS011;68145;52.514;13.460;2023-04-29T14:47:46;9.98;;;7.18;;
78796;SDS011;68145;52.514;13.460;2023-04-29T14:50:12;11.52;;;6.90;;